sensor_id;sensor_type;location;lat;lon;timestamp;pressure;altitude;pressure_sealevel;temperature;humidity
55755;BME280;41674;52.290;-1.474;2022-12-18T00:00:32;101539.26;;;-1.71;80.12
55755;BME280;41674;52.290;-1.474;2022-12-18T00:03:02;101539.50;;;-1.77;82.10
55755;BME280;41674;52.290;-1.474;2022-12-18T00:05:31;101529.60;;;-2.05;83.28
55755;BME280;41674;52.290;-1.474;2022-12-18T00:08:01;101518.80;;;-1.12;80.56
55755;BME280;41674;52.290;-1.474;2022-12-18T00:10:31;101516.66;;;-0.95;80.72
55755;BME280;41674;52.290;-1.474;2022-12-18T00:13:00;101508.69;;;-0.25;78.30
55755;BME280;41674;52.290;-1.474;2022-12-18T00:15:30;101507.00;;;-0.20;76.77
55755;BME280;41674;52.290;-1.474;2022-12-18T00:17:59;101505.60;;;-0.11;75.77
55755;BME280;41674;52.290;-1.474;2022-12-18T00:20:36;101505.26;;;-0.18;74.32
55755;BME280;41674;52.290;-1.474;2022-12-18T00:22:58;101513.72;;;-0.23;74.74
55755;BME280;41674;52.290;-1.474;2022-12-18T00:25:28;101520.24;;;0.10;73.16
55755;BME280;41674;52.290;-1.474;2022-12-18T00:27:58;101525.45;;;-0.73;73.93
55755;BME280;41674;52.290;-1.474;2022-12-18T00:30:28;101529.04;;;-0.94;74.00
55755;BME280;41674;52.290;-1.474;2022-12-18T00:32:57;101525.01;;;-0.22;73.14
55755;BME280;41674;52.290;-1.474;2022-12-18T00:35:26;101525.21;;;-0.53;72.40
55755;BME280;41674;52.290;-1.474;2022-12-18T00:37:56;101518.87;;;-0.60;71.41
55755;BME280;41674;52.290;-1.474;2022-12-18T00:40:25;101517.51;;;-0.48;70.40
55755;BME280;41674;52.290;-1.474;2022-12-18T00:42:55;101514.34;;;-0.03;70.23
55755;BME280;41674;52.290;-1.474;2022-12-18T00:45:26;101519.08;;;-0.50;70.12
55755;BME280;41674;52.290;-1.474;2022-12-18T00:47:55;101523.18;;;-0.77;70.81
55755;BME280;41674;52.290;-1.474;2022-12-18T00:50:25;101514.13;;;-0.43;70.19
55755;BME280;41674;52.290;-1.474;2022-12-18T00:52:53;101509.73;;;-0.21;70.28
55755;BME280;41674;52.290;-1.474;2022-12-18T00:55:22;101511.47;;;-0.26;70.36
55755;BME280;41674;52.290;-1.474;2022-12-18T00:57:51;101513.53;;;-0.48;71.02
55755;BME280;41674;52.290;-1.474;2022-12-18T01:00:21;101514.17;;;-0.95;73.65
55755;BME280;41674;52.290;-1.474;2022-12-18T01:02:50;101507.63;;;-0.41;72.36
55755;BME280;41674;52.290;-1.474;2022-12-18T01:07:49;101503.71;;;-1.23;73.85
55755;BME280;41674;52.290;-1.474;2022-12-18T01:10:19;101497.92;;;-0.47;71.58
55755;BME280;41674;52.290;-1.474;2022-12-18T01:12:48;101495.82;;;-0.82;72.70
55755;BME280;41674;52.290;-1.474;2022-12-18T01:15:18;101494.38;;;-0.88;73.12
55755;BME280;41674;52.290;-1.474;2022-12-18T01:17:47;101494.71;;;-0.61;71.12
55755;BME280;41674;52.290;-1.474;2022-12-18T01:20:17;101494.27;;;-3.00;79.38
55755;BME280;41674;52.290;-1.474;2022-12-18T01:22:46;101490.02;;;-1.18;76.04
55755;BME280;41674;52.290;-1.474;2022-12-18T01:25:16;101476.10;;;-0.51;74.28
55755;BME280;41674;52.290;-1.474;2022-12-18T01:27:45;101469.38;;;-0.56;74.83
55755;BME280;41674;52.290;-1.474;2022-12-18T01:30:15;101473.00;;;-1.64;80.07
55755;BME280;41674;52.290;-1.474;2022-12-18T01:32:44;101468.88;;;-1.16;78.04
55755;BME280;41674;52.290;-1.474;2022-12-18T01:35:13;101466.60;;;-1.71;81.26
55755;BME280;41674;52.290;-1.474;2022-12-18T01:37:43;101467.63;;;-1.21;79.00
55755;BME280;41674;52.290;-1.474;2022-12-18T01:40:12;101471.81;;;-1.37;77.81
55755;BME280;41674;52.290;-1.474;2022-12-18T01:42:42;101465.30;;;-1.15;78.12
55755;BME280;41674;52.290;-1.474;2022-12-18T01:45:22;101465.86;;;-0.64;77.76
55755;BME280;41674;52.290;-1.474;2022-12-18T01:47:43;101478.70;;;-1.37;80.04
55755;BME280;41674;52.290;-1.474;2022-12-18T01:50:13;101478.33;;;-2.64;85.13
55755;BME280;41674;52.290;-1.474;2022-12-18T01:52:41;101479.77;;;-2.29;85.04
55755;BME280;41674;52.290;-1.474;2022-12-18T01:55:10;101479.05;;;-1.90;85.40
55755;BME280;41674;52.290;-1.474;2022-12-18T01:57:39;101480.15;;;-2.47;87.21
55755;BME280;41674;52.290;-1.474;2022-12-18T02:00:11;101481.56;;;-1.68;82.71
55755;BME280;41674;52.290;-1.474;2022-12-18T02:02:38;101476.90;;;-1.04;79.60
55755;BME280;41674;52.290;-1.474;2022-12-18T02:05:07;101473.20;;;-1.08;79.30
55755;BME280;41674;52.290;-1.474;2022-12-18T02:07:44;101483.92;;;-1.98;81.69
55755;BME280;41674;52.290;-1.474;2022-12-18T02:10:10;101486.08;;;-1.81;82.08
55755;BME280;41674;52.290;-1.474;2022-12-18T02:12:42;101489.92;;;-1.47;81.30
55755;BME280;41674;52.290;-1.474;2022-12-18T02:15:09;101488.30;;;-1.53;81.29
55755;BME280;41674;52.290;-1.474;2022-12-18T02:17:37;101496.05;;;-1.76;81.57
55755;BME280;41674;52.290;-1.474;2022-12-18T02:20:09;101502.55;;;-2.30;85.96
55755;BME280;41674;52.290;-1.474;2022-12-18T02:22:39;101503.17;;;-2.51;89.71
55755;BME280;41674;52.290;-1.474;2022-12-18T02:25:12;101504.41;;;-3.59;96.47
55755;BME280;41674;52.290;-1.474;2022-12-18T02:27:32;101502.60;;;-2.84;92.30
55755;BME280;41674;52.290;-1.474;2022-12-18T02:30:01;101518.41;;;-3.65;95.28
55755;BME280;41674;52.290;-1.474;2022-12-18T02:32:34;101517.87;;;-2.20;90.20
55755;BME280;41674;52.290;-1.474;2022-12-18T02:34:59;101519.21;;;-1.41;86.09
55755;BME280;41674;52.290;-1.474;2022-12-18T02:37:30;101515.88;;;-2.35;89.39
55755;BME280;41674;52.290;-1.474;2022-12-18T02:39:59;101512.75;;;-1.59;87.10
55755;BME280;41674;52.290;-1.474;2022-12-18T02:42:28;101515.51;;;-1.98;87.42
55755;BME280;41674;52.290;-1.474;2022-12-18T02:44:56;101517.09;;;-0.76;83.21
55755;BME280;41674;52.290;-1.474;2022-12-18T02:47:29;101515.70;;;-0.93;83.91
55755;BME280;41674;52.290;-1.474;2022-12-18T02:50:02;101505.30;;;-0.58;81.87
55755;BME280;41674;52.290;-1.474;2022-12-18T02:52:31;101500.89;;;-0.29;80.33
55755;BME280;41674;52.290;-1.474;2022-12-18T02:55:00;101495.88;;;-0.28;79.71
55755;BME280;41674;52.290;-1.474;2022-12-18T02:57:30;101485.16;;;-0.25;80.06
55755;BME280;41674;52.290;-1.474;2022-12-18T03:00:00;101480.06;;;0.02;78.33
55755;BME280;41674;52.290;-1.474;2022-12-18T03:02:26;101474.08;;;-0.13;77.67
55755;BME280;41674;52.290;-1.474;2022-12-18T03:04:57;101467.69;;;0.17;77.50
55755;BME280;41674;52.290;-1.474;2022-12-18T03:07:26;101467.56;;;-0.28;76.25
55755;BME280;41674;52.290;-1.474;2022-12-18T03:09:52;101457.63;;;0.22;75.87
55755;BME280;41674;52.290;-1.474;2022-12-18T03:12:26;101457.04;;;0.34;75.13
55755;BME280;41674;52.290;-1.474;2022-12-18T03:14:52;101453.76;;;0.38;74.74
55755;BME280;41674;52.290;-1.474;2022-12-18T03:17:23;101453.37;;;0.40;74.48
55755;BME280;41674;52.290;-1.474;2022-12-18T03:19:49;101453.18;;;-0.93;80.32
55755;BME280;41674;52.290;-1.474;2022-12-18T03:22:18;101451.71;;;-0.12;75.36
55755;BME280;41674;52.290;-1.474;2022-12-18T03:24:48;101453.32;;;0.22;74.08
55755;BME280;41674;52.290;-1.474;2022-12-18T03:27:20;101446.46;;;0.27;73.83
55755;BME280;41674;52.290;-1.474;2022-12-18T03:29:50;101441.77;;;0.28;73.66
55755;BME280;41674;52.290;-1.474;2022-12-18T03:32:23;101431.75;;;0.11;73.49
55755;BME280;41674;52.290;-1.474;2022-12-18T03:34:47;101430.86;;;0.04;73.87
55755;BME280;41674;52.290;-1.474;2022-12-18T03:37:15;101430.06;;;0.09;73.37
55755;BME280;41674;52.290;-1.474;2022-12-18T03:39:45;101430.77;;;-0.89;76.90
55755;BME280;41674;52.290;-1.474;2022-12-18T03:42:17;101434.39;;;-1.25;77.91
55755;BME280;41674;52.290;-1.474;2022-12-18T03:44:48;101438.26;;;-2.15;80.98
55755;BME280;41674;52.290;-1.474;2022-12-18T03:47:15;101423.08;;;-1.00;79.81
55755;BME280;41674;52.290;-1.474;2022-12-18T03:49:47;101421.43;;;-0.48;77.45
55755;BME280;41674;52.290;-1.474;2022-12-18T03:52:17;101415.32;;;-0.09;76.45
55755;BME280;41674;52.290;-1.474;2022-12-18T03:54:43;101406.36;;;-0.08;76.24
55755;BME280;41674;52.290;-1.474;2022-12-18T03:57:15;101403.37;;;0.18;75.97
55755;BME280;41674;52.290;-1.474;2022-12-18T03:59:41;101393.38;;;0.03;75.71
55755;BME280;41674;52.290;-1.474;2022-12-18T04:02:11;101384.76;;;-0.33;77.23
55755;BME280;41674;52.290;-1.474;2022-12-18T04:04:42;101379.96;;;-1.90;81.62
55755;BME280;41674;52.290;-1.474;2022-12-18T04:07:10;101381.83;;;-1.92;84.39
55755;BME280;41674;52.290;-1.474;2022-12-18T04:09:40;101376.88;;;-0.99;80.90
55755;BME280;41674;52.290;-1.474;2022-12-18T04:12:08;101376.99;;;-1.16;79.43
55755;BME280;41674;52.290;-1.474;2022-12-18T04:14:37;101382.13;;;-1.89;85.39
55755;BME280;41674;52.290;-1.474;2022-12-18T04:17:07;101376.75;;;-2.89;88.22
55755;BME280;41674;52.290;-1.474;2022-12-18T04:19:36;101373.91;;;-4.24;96.87
55755;BME280;41674;52.290;-1.474;2022-12-18T04:22:06;101377.97;;;-5.22;100.00
55755;BME280;41674;52.290;-1.474;2022-12-18T04:24:35;101377.39;;;-4.62;100.00
55755;BME280;41674;52.290;-1.474;2022-12-18T04:27:04;101373.04;;;-4.45;100.00
55755;BME280;41674;52.290;-1.474;2022-12-18T04:29:34;101360.15;;;-4.32;100.00
55755;BME280;41674;52.290;-1.474;2022-12-18T04:32:03;101351.78;;;-4.40;100.00
55755;BME280;41674;52.290;-1.474;2022-12-18T04:34:33;101343.21;;;-4.60;100.00
55755;BME280;41674;52.290;-1.474;2022-12-18T04:37:02;101336.31;;;-3.39;100.00
55755;BME280;41674;52.290;-1.474;2022-12-18T04:39:31;101335.24;;;-2.85;96.62
55755;BME280;41674;52.290;-1.474;2022-12-18T04:42:00;101332.45;;;-2.81;95.75
55755;BME280;41674;52.290;-1.474;2022-12-18T04:44:30;101322.30;;;-3.29;95.42
55755;BME280;41674;52.290;-1.474;2022-12-18T04:46:59;101317.07;;;-2.28;94.00
55755;BME280;41674;52.290;-1.474;2022-12-18T04:49:29;101309.18;;;-3.40;99.94
55755;BME280;41674;52.290;-1.474;2022-12-18T04:51:58;101298.38;;;-3.45;99.35
55755;BME280;41674;52.290;-1.474;2022-12-18T04:54:27;101291.80;;;-4.14;99.95
55755;BME280;41674;52.290;-1.474;2022-12-18T04:56:57;101281.86;;;-3.58;100.00
55755;BME280;41674;52.290;-1.474;2022-12-18T04:59:26;101278.40;;;-3.42;100.00
55755;BME280;41674;52.290;-1.474;2022-12-18T05:01:56;101270.06;;;-4.24;100.00
55755;BME280;41674;52.290;-1.474;2022-12-18T05:04:25;101269.58;;;-4.19;100.00
55755;BME280;41674;52.290;-1.474;2022-12-18T05:06:54;101263.28;;;-4.32;100.00
55755;BME280;41674;52.290;-1.474;2022-12-18T05:09:24;101265.15;;;-3.17;100.00
55755;BME280;41674;52.290;-1.474;2022-12-18T05:11:53;101258.97;;;-2.98;96.21
55755;BME280;41674;52.290;-1.474;2022-12-18T05:14:23;101255.68;;;-1.70;92.23
55755;BME280;41674;52.290;-1.474;2022-12-18T05:16:52;101253.78;;;-1.64;91.17
55755;BME280;41674;52.290;-1.474;2022-12-18T05:19:21;101245.03;;;-2.26;91.15
55755;BME280;41674;52.290;-1.474;2022-12-18T05:21:51;101242.61;;;-2.81;92.66
55755;BME280;41674;52.290;-1.474;2022-12-18T05:24:20;101243.71;;;-1.10;86.52
55755;BME280;41674;52.290;-1.474;2022-12-18T05:26:50;101249.15;;;-1.13;86.44
55755;BME280;41674;52.290;-1.474;2022-12-18T05:29:19;101252.78;;;-0.46;84.95
55755;BME280;41674;52.290;-1.474;2022-12-18T05:31:49;101251.00;;;-0.23;82.43
55755;BME280;41674;52.290;-1.474;2022-12-18T05:34:18;101258.68;;;-0.11;82.87
55755;BME280;41674;52.290;-1.474;2022-12-18T05:36:48;101265.99;;;-0.04;80.61
55755;BME280;41674;52.290;-1.474;2022-12-18T05:39:17;101268.36;;;-0.32;81.97
55755;BME280;41674;52.290;-1.474;2022-12-18T05:41:46;101263.82;;;0.14;80.75
55755;BME280;41674;52.290;-1.474;2022-12-18T05:44:15;101266.29;;;-0.02;81.16
55755;BME280;41674;52.290;-1.474;2022-12-18T05:46:45;101263.30;;;-1.98;87.96
55755;BME280;41674;52.290;-1.474;2022-12-18T05:49:15;101244.18;;;-1.82;90.40
55755;BME280;41674;52.290;-1.474;2022-12-18T05:51:44;101235.15;;;-1.98;90.84
55755;BME280;41674;52.290;-1.474;2022-12-18T05:54:13;101237.02;;;-1.53;90.67
55755;BME280;41674;52.290;-1.474;2022-12-18T05:56:43;101255.58;;;-2.33;90.69
55755;BME280;41674;52.290;-1.474;2022-12-18T05:59:13;101251.16;;;-1.38;91.17
55755;BME280;41674;52.290;-1.474;2022-12-18T06:01:42;101246.10;;;-1.35;88.22
55755;BME280;41674;52.290;-1.474;2022-12-18T06:04:12;101232.13;;;-0.57;86.44
55755;BME280;41674;52.290;-1.474;2022-12-18T06:06:41;101215.18;;;-1.25;88.64
55755;BME280;41674;52.290;-1.474;2022-12-18T06:09:10;101206.53;;;-1.90;92.06
55755;BME280;41674;52.290;-1.474;2022-12-18T06:11:40;101208.67;;;-2.93;99.00
55755;BME280;41674;52.290;-1.474;2022-12-18T06:14:10;101209.97;;;-3.81;100.00
55755;BME280;41674;52.290;-1.474;2022-12-18T06:16:40;101205.67;;;-3.80;100.00
55755;BME280;41674;52.290;-1.474;2022-12-18T06:19:15;101205.72;;;-3.93;100.00
55755;BME280;41674;52.290;-1.474;2022-12-18T06:21:43;101214.70;;;-4.22;100.00
55755;BME280;41674;52.290;-1.474;2022-12-18T06:24:09;101210.52;;;-3.98;100.00
55755;BME280;41674;52.290;-1.474;2022-12-18T06:26:39;101206.68;;;-4.33;100.00
55755;BME280;41674;52.290;-1.474;2022-12-18T06:29:08;101209.37;;;-4.25;100.00
55755;BME280;41674;52.290;-1.474;2022-12-18T06:31:38;101217.91;;;-3.81;100.00
55755;BME280;41674;52.290;-1.474;2022-12-18T06:34:08;101213.23;;;-2.92;100.00
55755;BME280;41674;52.290;-1.474;2022-12-18T06:36:37;101212.83;;;-3.70;100.00
55755;BME280;41674;52.290;-1.474;2022-12-18T06:39:07;101206.98;;;-3.36;100.00
55755;BME280;41674;52.290;-1.474;2022-12-18T06:41:36;101199.05;;;-2.74;100.00
55755;BME280;41674;52.290;-1.474;2022-12-18T06:44:05;101203.13;;;-2.99;100.00
55755;BME280;41674;52.290;-1.474;2022-12-18T06:46:34;101207.03;;;-2.60;100.00
55755;BME280;41674;52.290;-1.474;2022-12-18T06:49:04;101213.13;;;-2.25;98.41
55755;BME280;41674;52.290;-1.474;2022-12-18T06:51:33;101203.24;;;-2.15;95.99
55755;BME280;41674;52.290;-1.474;2022-12-18T06:54:02;101198.93;;;-2.13;94.04
55755;BME280;41674;52.290;-1.474;2022-12-18T06:56:32;101193.01;;;-2.46;98.74
55755;BME280;41674;52.290;-1.474;2022-12-18T06:59:01;101185.19;;;-2.71;100.00
55755;BME280;41674;52.290;-1.474;2022-12-18T07:01:30;101180.06;;;-1.79;95.70
55755;BME280;41674;52.290;-1.474;2022-12-18T07:03:59;101180.34;;;-2.82;98.86
55755;BME280;41674;52.290;-1.474;2022-12-18T07:06:29;101162.02;;;-0.57;89.86
55755;BME280;41674;52.290;-1.474;2022-12-18T07:08:58;101150.62;;;-1.20;90.06
55755;BME280;41674;52.290;-1.474;2022-12-18T07:11:28;101144.30;;;-0.32;87.77
55755;BME280;41674;52.290;-1.474;2022-12-18T07:13:57;101153.07;;;-0.76;88.35
55755;BME280;41674;52.290;-1.474;2022-12-18T07:16:27;101155.05;;;-2.02;93.83
55755;BME280;41674;52.290;-1.474;2022-12-18T07:18:57;101154.89;;;-0.72;90.41
55755;BME280;41674;52.290;-1.474;2022-12-18T07:21:26;101162.50;;;-0.71;88.27
55755;BME280;41674;52.290;-1.474;2022-12-18T07:23:55;101167.44;;;-0.08;85.59
55755;BME280;41674;52.290;-1.474;2022-12-18T07:26:25;101166.07;;;-1.24;91.16
55755;BME280;41674;52.290;-1.474;2022-12-18T07:28:55;101161.89;;;-0.26;88.43
55755;BME280;41674;52.290;-1.474;2022-12-18T07:31:26;101166.80;;;0.01;84.75
55755;BME280;41674;52.290;-1.474;2022-12-18T07:33:54;101172.44;;;-0.70;84.97
55755;BME280;41674;52.290;-1.474;2022-12-18T07:36:29;101175.19;;;0.08;83.56
55755;BME280;41674;52.290;-1.474;2022-12-18T07:38:53;101180.14;;;-0.02;81.80
55755;BME280;41674;52.290;-1.474;2022-12-18T07:41:22;101194.54;;;0.17;82.90
55755;BME280;41674;52.290;-1.474;2022-12-18T07:43:52;101200.20;;;-0.29;85.14
55755;BME280;41674;52.290;-1.474;2022-12-18T07:46:21;101199.65;;;0.58;82.49
55755;BME280;41674;52.290;-1.474;2022-12-18T07:48:51;101189.03;;;0.48;81.83
55755;BME280;41674;52.290;-1.474;2022-12-18T07:51:20;101182.17;;;0.71;81.02
55755;BME280;41674;52.290;-1.474;2022-12-18T07:53:50;101180.34;;;-0.33;84.28
55755;BME280;41674;52.290;-1.474;2022-12-18T07:56:19;101183.81;;;0.68;81.45
55755;BME280;41674;52.290;-1.474;2022-12-18T07:58:48;101178.27;;;0.43;83.41
55755;BME280;41674;52.290;-1.474;2022-12-18T08:01:17;101172.37;;;-2.18;93.02
55755;BME280;41674;52.290;-1.474;2022-12-18T08:03:47;101181.10;;;-2.38;95.20
55755;BME280;41674;52.290;-1.474;2022-12-18T08:06:16;101172.29;;;-0.57;89.36
55755;BME280;41674;52.290;-1.474;2022-12-18T08:08:46;101163.55;;;-0.90;89.43
55755;BME280;41674;52.290;-1.474;2022-12-18T08:11:15;101165.22;;;-2.77;100.00
55755;BME280;41674;52.290;-1.474;2022-12-18T08:13:45;101152.66;;;-0.93;91.16
55755;BME280;41674;52.290;-1.474;2022-12-18T08:16:14;101175.79;;;-0.26;86.79
55755;BME280;41674;52.290;-1.474;2022-12-18T08:18:44;101163.26;;;-0.67;86.25
55755;BME280;41674;52.290;-1.474;2022-12-18T08:21:15;101167.88;;;-3.54;100.00
55755;BME280;41674;52.290;-1.474;2022-12-18T08:23:43;101181.88;;;-1.46;95.48
55755;BME280;41674;52.290;-1.474;2022-12-18T08:26:13;101176.08;;;-0.90;93.05
55755;BME280;41674;52.290;-1.474;2022-12-18T08:28:42;101175.25;;;-1.62;95.52
55755;BME280;41674;52.290;-1.474;2022-12-18T08:31:12;101170.74;;;-1.83;95.89
55755;BME280;41674;52.290;-1.474;2022-12-18T08:33:41;101186.29;;;-0.86;90.59
55755;BME280;41674;52.290;-1.474;2022-12-18T08:36:10;101173.02;;;-2.05;94.15
55755;BME280;41674;52.290;-1.474;2022-12-18T08:38:39;101169.97;;;-1.02;93.93
55755;BME280;41674;52.290;-1.474;2022-12-18T08:41:11;101178.78;;;-0.18;88.43
55755;BME280;41674;52.290;-1.474;2022-12-18T08:43:38;101191.05;;;-0.77;89.07
55755;BME280;41674;52.290;-1.474;2022-12-18T08:46:08;101179.21;;;-0.18;88.32
55755;BME280;41674;52.290;-1.474;2022-12-18T08:48:37;101179.94;;;-2.39;96.54
55755;BME280;41674;52.290;-1.474;2022-12-18T08:51:06;101178.51;;;-1.36;92.70
55755;BME280;41674;52.290;-1.474;2022-12-18T08:53:35;101165.05;;;-0.46;90.32
55755;BME280;41674;52.290;-1.474;2022-12-18T08:56:05;101174.44;;;-0.58;88.71
55755;BME280;41674;52.290;-1.474;2022-12-18T08:58:34;101163.03;;;-0.42;87.18
55755;BME280;41674;52.290;-1.474;2022-12-18T09:01:10;101152.87;;;-0.83;89.18
55755;BME280;41674;52.290;-1.474;2022-12-18T09:03:34;101145.81;;;-1.53;93.91
55755;BME280;41674;52.290;-1.474;2022-12-18T09:06:03;101139.22;;;-1.72;94.99
55755;BME280;41674;52.290;-1.474;2022-12-18T09:08:37;101140.93;;;-1.42;95.37
55755;BME280;41674;52.290;-1.474;2022-12-18T09:11:02;101142.34;;;-1.50;94.04
55755;BME280;41674;52.290;-1.474;2022-12-18T09:13:30;101139.08;;;-0.81;91.54
55755;BME280;41674;52.290;-1.474;2022-12-18T09:16:00;101146.58;;;-1.05;90.70
55755;BME280;41674;52.290;-1.474;2022-12-18T09:18:29;101137.49;;;-0.06;87.71
55755;BME280;41674;52.290;-1.474;2022-12-18T09:20:59;101131.67;;;-0.44;87.73
55755;BME280;41674;52.290;-1.474;2022-12-18T09:23:28;101132.02;;;-0.66;90.05
55755;BME280;41674;52.290;-1.474;2022-12-18T09:26:04;101126.99;;;0.69;85.19
55755;BME280;41674;52.290;-1.474;2022-12-18T09:28:27;101127.08;;;0.75;83.21
55755;BME280;41674;52.290;-1.474;2022-12-18T09:30:57;101119.19;;;0.74;84.62
55755;BME280;41674;52.290;-1.474;2022-12-18T09:33:26;101113.99;;;-0.38;87.87
55755;BME280;41674;52.290;-1.474;2022-12-18T09:35:55;101122.22;;;0.48;85.52
55755;BME280;41674;52.290;-1.474;2022-12-18T09:38:24;101116.81;;;0.30;84.73
55755;BME280;41674;52.290;-1.474;2022-12-18T09:40:58;101107.33;;;0.55;84.28
55755;BME280;41674;52.290;-1.474;2022-12-18T09:43:34;101102.07;;;0.41;86.23
55755;BME280;41674;52.290;-1.474;2022-12-18T09:46:00;101093.88;;;-1.16;90.40
55755;BME280;41674;52.290;-1.474;2022-12-18T09:48:30;101077.76;;;-1.06;93.43
55755;BME280;41674;52.290;-1.474;2022-12-18T09:50:59;101073.62;;;0.22;87.61
55755;BME280;41674;52.290;-1.474;2022-12-18T09:53:26;101072.97;;;-0.53;88.60
55755;BME280;41674;52.290;-1.474;2022-12-18T09:55:56;101065.42;;;-0.95;90.52
55755;BME280;41674;52.290;-1.474;2022-12-18T09:58:26;101064.01;;;-0.79;92.36
55755;BME280;41674;52.290;-1.474;2022-12-18T10:00:56;101063.73;;;-1.32;93.98
55755;BME280;41674;52.290;-1.474;2022-12-18T10:03:20;101063.68;;;-1.64;98.52
55755;BME280;41674;52.290;-1.474;2022-12-18T10:05:57;101042.77;;;-2.09;100.00
55755;BME280;41674;52.290;-1.474;2022-12-18T10:08:24;101037.64;;;-2.49;100.00
55755;BME280;41674;52.290;-1.474;2022-12-18T10:10:50;101031.20;;;-2.90;100.00
55755;BME280;41674;52.290;-1.474;2022-12-18T10:13:30;101025.78;;;-2.19;100.00
55755;BME280;41674;52.290;-1.474;2022-12-18T10:16:00;101014.22;;;-2.85;100.00
55755;BME280;41674;52.290;-1.474;2022-12-18T10:18:26;101003.18;;;-2.58;100.00
55755;BME280;41674;52.290;-1.474;2022-12-18T10:20:49;100996.21;;;-2.47;100.00
55755;BME280;41674;52.290;-1.474;2022-12-18T10:23:24;100986.02;;;-3.00;100.00
55755;BME280;41674;52.290;-1.474;2022-12-18T10:25:52;100978.83;;;-3.27;100.00
55755;BME280;41674;52.290;-1.474;2022-12-18T10:28:21;100971.32;;;-2.96;100.00
55755;BME280;41674;52.290;-1.474;2022-12-18T10:30:45;100968.98;;;-2.30;100.00
55755;BME280;41674;52.290;-1.474;2022-12-18T10:33:16;100969.54;;;-2.15;100.00
55755;BME280;41674;52.290;-1.474;2022-12-18T10:35:45;100970.81;;;-2.79;100.00
55755;BME280;41674;52.290;-1.474;2022-12-18T10:38:22;100966.79;;;-2.94;100.00
55755;BME280;41674;52.290;-1.474;2022-12-18T10:40:50;100956.60;;;-1.80;100.00
55755;BME280;41674;52.290;-1.474;2022-12-18T10:43:13;100955.32;;;-2.55;100.00
55755;BME280;41674;52.290;-1.474;2022-12-18T10:45:42;100950.38;;;-2.01;100.00
55755;BME280;41674;52.290;-1.474;2022-12-18T10:48:19;100937.27;;;-1.83;100.00
55755;BME280;41674;52.290;-1.474;2022-12-18T10:50:48;100933.84;;;-2.02;100.00
55755;BME280;41674;52.290;-1.474;2022-12-18T10:53:18;100932.96;;;-2.11;100.00
55755;BME280;41674;52.290;-1.474;2022-12-18T10:55:40;100927.94;;;-2.62;100.00
55755;BME280;41674;52.290;-1.474;2022-12-18T10:58:23;100917.72;;;-1.30;100.00
55755;BME280;41674;52.290;-1.474;2022-12-18T11:00:43;100904.18;;;-0.98;100.00
55755;BME280;41674;52.290;-1.474;2022-12-18T11:05:42;100898.68;;;-1.47;100.00
55755;BME280;41674;52.290;-1.474;2022-12-18T11:08:19;100898.94;;;-1.38;100.00
55755;BME280;41674;52.290;-1.474;2022-12-18T11:10:37;100896.72;;;-1.57;100.00
55755;BME280;41674;52.290;-1.474;2022-12-18T11:13:11;100900.16;;;-1.00;100.00
55755;BME280;41674;52.290;-1.474;2022-12-18T11:15:35;100903.93;;;-0.70;100.00
55755;BME280;41674;52.290;-1.474;2022-12-18T11:18:05;100898.93;;;-0.53;98.45
55755;BME280;41674;52.290;-1.474;2022-12-18T11:20:35;100899.87;;;-0.75;99.23
55755;BME280;41674;52.290;-1.474;2022-12-18T11:23:05;100886.14;;;-0.75;100.00
55755;BME280;41674;52.290;-1.474;2022-12-18T11:25:34;100887.92;;;-1.21;100.00
55755;BME280;41674;52.290;-1.474;2022-12-18T11:28:05;100886.15;;;-0.51;98.82
55755;BME280;41674;52.290;-1.474;2022-12-18T11:30:35;100878.71;;;-0.96;100.00
55755;BME280;41674;52.290;-1.474;2022-12-18T11:33:05;100869.82;;;-1.65;100.00
55755;BME280;41674;52.290;-1.474;2022-12-18T11:35:37;100855.35;;;-0.92;100.00
55755;BME280;41674;52.290;-1.474;2022-12-18T11:38:06;100841.06;;;-0.80;100.00
55755;BME280;41674;52.290;-1.474;2022-12-18T11:40:35;100841.12;;;-1.73;100.00
55755;BME280;41674;52.290;-1.474;2022-12-18T11:45:34;100830.43;;;-1.61;100.00
55755;BME280;41674;52.290;-1.474;2022-12-18T11:48:03;100830.03;;;-1.63;100.00
55755;BME280;41674;52.290;-1.474;2022-12-18T11:50:33;100824.20;;;-1.36;100.00
55755;BME280;41674;52.290;-1.474;2022-12-18T11:52:59;100814.98;;;-1.62;100.00
55755;BME280;41674;52.290;-1.474;2022-12-18T11:55:41;100815.48;;;-1.41;100.00
55755;BME280;41674;52.290;-1.474;2022-12-18T11:58:04;100811.99;;;-1.50;100.00
55755;BME280;41674;52.290;-1.474;2022-12-18T12:00:31;100796.18;;;-1.62;100.00
55755;BME280;41674;52.290;-1.474;2022-12-18T12:03:11;100787.32;;;-0.42;100.00
55755;BME280;41674;52.290;-1.474;2022-12-18T12:05:37;100787.29;;;-0.98;100.00
55755;BME280;41674;52.290;-1.474;2022-12-18T12:08:00;100777.34;;;-1.21;100.00
55755;BME280;41674;52.290;-1.474;2022-12-18T12:10:38;100772.11;;;-1.57;100.00
55755;BME280;41674;52.290;-1.474;2022-12-18T12:13:11;100759.45;;;-1.03;100.00
55755;BME280;41674;52.290;-1.474;2022-12-18T12:15:30;100749.42;;;-1.19;100.00
55755;BME280;41674;52.290;-1.474;2022-12-18T12:17:57;100745.33;;;-0.71;100.00
55755;BME280;41674;52.290;-1.474;2022-12-18T12:20:26;100737.48;;;-0.68;100.00
55755;BME280;41674;52.290;-1.474;2022-12-18T12:22:57;100730.40;;;-1.05;100.00
55755;BME280;41674;52.290;-1.474;2022-12-18T12:25:33;100714.91;;;0.04;99.27
55755;BME280;41674;52.290;-1.474;2022-12-18T12:27:57;100711.97;;;-0.73;100.00
55755;BME280;41674;52.290;-1.474;2022-12-18T12:30:24;100705.96;;;-0.14;98.92
55755;BME280;41674;52.290;-1.474;2022-12-18T12:33:07;100694.40;;;-1.41;100.00
55755;BME280;41674;52.290;-1.474;2022-12-18T12:35:29;100687.73;;;-1.17;100.00
55755;BME280;41674;52.290;-1.474;2022-12-18T12:38:03;100677.05;;;-0.82;100.00
55755;BME280;41674;52.290;-1.474;2022-12-18T12:40:30;100670.55;;;-0.84;100.00
55755;BME280;41674;52.290;-1.474;2022-12-18T12:42:58;100667.98;;;-0.95;100.00
55755;BME280;41674;52.290;-1.474;2022-12-18T12:45:22;100667.47;;;-0.81;100.00
55755;BME280;41674;52.290;-1.474;2022-12-18T12:47:48;100652.81;;;-1.61;100.00
55755;BME280;41674;52.290;-1.474;2022-12-18T12:50:17;100645.51;;;-1.58;100.00
55755;BME280;41674;52.290;-1.474;2022-12-18T12:52:48;100643.01;;;-1.78;100.00
55755;BME280;41674;52.290;-1.474;2022-12-18T12:55:32;100640.31;;;-2.00;100.00